sensor_id;sensor_type;location;lat;lon;timestamp;pressure;altitude;pressure_sealevel;temperature;humidity
72061;BME280;59925;52.136;5.420;2023-02-12T00:01:07;104038.22;;;7.09;86.77
72061;BME280;59925;52.136;5.420;2023-02-12T00:03:35;104035.56;;;7.09;86.75
72061;BME280;59925;52.136;5.420;2023-02-12T00:06:02;104035.38;;;7.11;86.68
72061;BME280;59925;52.136;5.420;2023-02-12T00:08:29;104043.38;;;7.11;86.95
72061;BME280;59925;52.136;5.420;2023-02-12T00:10:55;104040.91;;;7.09;86.89
72061;BME280;59925;52.136;5.420;2023-02-12T00:13:22;104036.56;;;7.08;86.81
72061;BME280;59925;52.136;5.420;2023-02-12T00:15:49;104030.56;;;7.06;86.47
72061;BME280;59925;52.136;5.420;2023-02-12T00:18:16;104034.06;;;7.07;86.67
72061;BME280;59925;52.136;5.420;2023-02-12T00:20:42;104021.72;;;7.05;86.92
72061;BME280;59925;52.136;5.420;2023-02-12T00:23:09;104029.88;;;7.04;87.06
72061;BME280;59925;52.136;5.420;2023-02-12T00:25:39;104029.06;;;7.03;87.10
72061;BME280;59925;52.136;5.420;2023-02-12T00:28:06;104038.06;;;7.02;87.06
72061;BME280;59925;52.136;5.420;2023-02-12T00:30:32;104042.53;;;7.02;86.97
72061;BME280;59925;52.136;5.420;2023-02-12T00:32:59;104029.22;;;7.02;86.90
72061;BME280;59925;52.136;5.420;2023-02-12T00:35:25;104034.91;;;6.99;86.97
72061;BME280;59925;52.136;5.420;2023-02-12T00:37:52;104040.25;;;6.99;86.86
72061;BME280;59925;52.136;5.420;2023-02-12T00:40:18;104033.06;;;6.99;87.03
72061;BME280;59925;52.136;5.420;2023-02-12T00:42:45;104034.56;;;6.94;87.16
72061;BME280;59925;52.136;5.420;2023-02-12T00:45:11;104027.41;;;6.94;87.39
72061;BME280;59925;52.136;5.420;2023-02-12T00:47:37;104036.03;;;6.96;87.23
72061;BME280;59925;52.136;5.420;2023-02-12T00:50:04;104027.22;;;6.96;87.18
72061;BME280;59925;52.136;5.420;2023-02-12T00:52:31;104040.75;;;6.94;87.19
72061;BME280;59925;52.136;5.420;2023-02-12T00:54:58;104039.88;;;6.94;87.21
72061;BME280;59925;52.136;5.420;2023-02-12T00:57:24;104039.88;;;6.94;87.51
72061;BME280;59925;52.136;5.420;2023-02-12T00:59:50;104040.75;;;6.94;87.27
72061;BME280;59925;52.136;5.420;2023-02-12T01:02:17;104028.53;;;6.92;87.04
72061;BME280;59925;52.136;5.420;2023-02-12T01:04:43;104030.38;;;6.91;87.14
72061;BME280;59925;52.136;5.420;2023-02-12T01:07:10;104033.88;;;6.92;87.03
72061;BME280;59925;52.136;5.420;2023-02-12T01:09:36;104034.88;;;6.90;86.90
72061;BME280;59925;52.136;5.420;2023-02-12T01:12:03;104039.53;;;6.88;86.92
72061;BME280;59925;52.136;5.420;2023-02-12T01:14:30;104038.91;;;6.86;87.30
72061;BME280;59925;52.136;5.420;2023-02-12T01:16:56;104042.88;;;6.82;86.94
72061;BME280;59925;52.136;5.420;2023-02-12T01:19:22;104038.38;;;6.83;86.99
72061;BME280;59925;52.136;5.420;2023-02-12T01:21:49;104037.72;;;6.81;87.03
72061;BME280;59925;52.136;5.420;2023-02-12T01:24:15;104033.03;;;6.83;86.99
72061;BME280;59925;52.136;5.420;2023-02-12T01:26:42;104032.03;;;6.84;87.14
72061;BME280;59925;52.136;5.420;2023-02-12T01:29:09;104032.88;;;6.84;87.13
72061;BME280;59925;52.136;5.420;2023-02-12T01:31:37;104041.22;;;6.81;86.82
72061;BME280;59925;52.136;5.420;2023-02-12T01:34:05;104037.72;;;6.81;86.92
72061;BME280;59925;52.136;5.420;2023-02-12T01:36:33;104037.53;;;6.82;86.86
72061;BME280;59925;52.136;5.420;2023-02-12T01:38:59;104029.06;;;6.79;86.78
72061;BME280;59925;52.136;5.420;2023-02-12T01:41:32;104036.19;;;6.78;87.00
72061;BME280;59925;52.136;5.420;2023-02-12T01:44:17;104039.19;;;6.75;87.00
72061;BME280;59925;52.136;5.420;2023-02-12T01:46:46;104036.53;;;6.75;86.80
72061;BME280;59925;52.136;5.420;2023-02-12T01:49:33;104035.03;;;6.72;86.83
72061;BME280;59925;52.136;5.420;2023-02-12T01:52:09;104038.69;;;6.71;87.02
72061;BME280;59925;52.136;5.420;2023-02-12T01:54:39;104039.53;;;6.72;86.95
72061;BME280;59925;52.136;5.420;2023-02-12T01:57:08;104032.84;;;6.68;86.87
72061;BME280;59925;52.136;5.420;2023-02-12T01:59:38;104037.38;;;6.67;86.88
72061;BME280;59925;52.136;5.420;2023-02-12T02:02:05;104033.34;;;6.63;87.08
72061;BME280;59925;52.136;5.420;2023-02-12T02:04:40;104032.00;;;6.59;86.84
72061;BME280;59925;52.136;5.420;2023-02-12T02:07:08;104030.34;;;6.58;86.70
72061;BME280;59925;52.136;5.420;2023-02-12T02:09:37;104023.50;;;6.55;86.63
72061;BME280;59925;52.136;5.420;2023-02-12T02:12:05;104024.81;;;6.51;86.74
72061;BME280;59925;52.136;5.420;2023-02-12T02:14:54;104027.31;;;6.44;86.84
72061;BME280;59925;52.136;5.420;2023-02-12T02:20:42;104028.97;;;6.37;86.72
72061;BME280;59925;52.136;5.420;2023-02-12T02:31:46;104027.94;;;6.30;87.41
72061;BME280;59925;52.136;5.420;2023-02-12T02:39:54;104023.78;;;6.27;87.23
72061;BME280;59925;52.136;5.420;2023-02-12T02:42:36;104021.94;;;6.28;87.10
72061;BME280;59925;52.136;5.420;2023-02-12T02:45:12;104013.78;;;6.29;87.21
72061;BME280;59925;52.136;5.420;2023-02-12T02:47:44;104018.63;;;6.26;87.11
72061;BME280;59925;52.136;5.420;2023-02-12T02:50:15;104013.78;;;6.21;87.27
72061;BME280;59925;52.136;5.420;2023-02-12T02:55:20;104020.09;;;6.20;87.20
72061;BME280;59925;52.136;5.420;2023-02-12T02:57:56;104014.75;;;6.20;87.72
72061;BME280;59925;52.136;5.420;2023-02-12T03:00:34;104013.78;;;6.21;87.71
72061;BME280;59925;52.136;5.420;2023-02-12T03:03:08;104019.75;;;6.23;87.87
72061;BME280;59925;52.136;5.420;2023-02-12T03:05:40;104005.78;;;6.21;87.88
72061;BME280;59925;52.136;5.420;2023-02-12T03:08:17;104005.91;;;6.20;88.19
72061;BME280;59925;52.136;5.420;2023-02-12T03:10:59;104002.44;;;6.19;88.09
72061;BME280;59925;52.136;5.420;2023-02-12T03:13:34;104008.75;;;6.18;88.02
72061;BME280;59925;52.136;5.420;2023-02-12T03:16:10;104009.59;;;6.19;88.00
72061;BME280;59925;52.136;5.420;2023-02-12T03:19:07;104002.44;;;6.19;88.31
72061;BME280;59925;52.136;5.420;2023-02-12T03:21:43;104008.75;;;6.18;88.32
72061;BME280;59925;52.136;5.420;2023-02-12T03:24:50;104001.44;;;6.20;88.37
72061;BME280;59925;52.136;5.420;2023-02-12T03:27:33;104000.44;;;6.21;88.21
72061;BME280;59925;52.136;5.420;2023-02-12T03:30:03;104000.59;;;6.20;88.03
72061;BME280;59925;52.136;5.420;2023-02-12T03:35:33;104016.75;;;6.18;88.36
72061;BME280;59925;52.136;5.420;2023-02-12T03:38:19;104015.75;;;6.19;88.46
72061;BME280;59925;52.136;5.420;2023-02-12T03:43:56;104013.78;;;6.21;88.50
72061;BME280;59925;52.136;5.420;2023-02-12T03:49:30;104021.91;;;6.20;88.50
72061;BME280;59925;52.136;5.420;2023-02-12T03:51:58;104017.44;;;6.20;88.55
72061;BME280;59925;52.136;5.420;2023-02-12T03:54:25;104011.09;;;6.21;88.83
72061;BME280;59925;52.136;5.420;2023-02-12T03:56:56;104010.25;;;6.21;88.73
72061;BME280;59925;52.136;5.420;2023-02-12T03:59:25;104029.91;;;6.20;88.56
72061;BME280;59925;52.136;5.420;2023-02-12T04:01:53;104029.09;;;6.19;88.49
72061;BME280;59925;52.136;5.420;2023-02-12T04:04:22;104027.22;;;6.20;88.27
72061;BME280;59925;52.136;5.420;2023-02-12T04:06:50;104029.22;;;6.18;88.26
72061;BME280;59925;52.136;5.420;2023-02-12T04:09:17;104029.22;;;6.18;88.74
72061;BME280;59925;52.136;5.420;2023-02-12T04:14:43;104041.06;;;6.23;88.96
72061;BME280;59925;52.136;5.420;2023-02-12T04:17:21;104033.91;;;6.24;88.73
72061;BME280;59925;52.136;5.420;2023-02-12T04:28:35;104040.59;;;6.28;88.91
72061;BME280;59925;52.136;5.420;2023-02-12T04:31:12;104040.44;;;6.29;88.78
72061;BME280;59925;52.136;5.420;2023-02-12T04:33:59;104052.91;;;6.29;88.64
72061;BME280;59925;52.136;5.420;2023-02-12T04:36:34;104045.94;;;6.28;88.48
72061;BME280;59925;52.136;5.420;2023-02-12T04:39:08;104051.91;;;6.30;88.42
72061;BME280;59925;52.136;5.420;2023-02-12T04:41:37;104052.91;;;6.29;88.41
72061;BME280;59925;52.136;5.420;2023-02-12T04:44:16;104052.09;;;6.28;88.61
72061;BME280;59925;52.136;5.420;2023-02-12T04:46:42;104055.44;;;6.31;88.59
72061;BME280;59925;52.136;5.420;2023-02-12T04:49:13;104054.91;;;6.27;88.64
72061;BME280;59925;52.136;5.420;2023-02-12T04:51:41;104059.72;;;6.23;88.71
72061;BME280;59925;52.136;5.420;2023-02-12T04:54:08;104061.06;;;6.19;88.97
72061;BME280;59925;52.136;5.420;2023-02-12T04:56:34;104063.72;;;6.19;88.95
72061;BME280;59925;52.136;5.420;2023-02-12T04:59:01;104052.72;;;6.22;88.99
72061;BME280;59925;52.136;5.420;2023-02-12T05:01:27;104049.91;;;6.24;89.01
72061;BME280;59925;52.136;5.420;2023-02-12T05:03:56;104054.38;;;6.23;88.69
72061;BME280;59925;52.136;5.420;2023-02-12T05:06:23;104060.41;;;6.25;88.89
72061;BME280;59925;52.136;5.420;2023-02-12T05:08:51;104062.06;;;6.26;88.68
72061;BME280;59925;52.136;5.420;2023-02-12T05:11:18;104064.72;;;6.26;88.80
72061;BME280;59925;52.136;5.420;2023-02-12T05:13:49;104061.25;;;6.26;88.64
72061;BME280;59925;52.136;5.420;2023-02-12T05:16:15;104058.56;;;6.26;88.94
72061;BME280;59925;52.136;5.420;2023-02-12T05:18:43;104069.06;;;6.27;88.89
72061;BME280;59925;52.136;5.420;2023-02-12T05:21:09;104054.56;;;6.30;89.20
72061;BME280;59925;52.136;5.420;2023-02-12T05:23:37;104051.91;;;6.30;88.96
72061;BME280;59925;52.136;5.420;2023-02-12T05:26:07;104059.09;;;6.29;88.87
72061;BME280;59925;52.136;5.420;2023-02-12T05:28:34;104062.44;;;6.32;88.80
72061;BME280;59925;52.136;5.420;2023-02-12T05:31:03;104063.25;;;6.32;89.05
72061;BME280;59925;52.136;5.420;2023-02-12T05:33:30;104065.09;;;6.32;88.96
72061;BME280;59925;52.136;5.420;2023-02-12T05:36:08;104068.44;;;6.34;88.88
72061;BME280;59925;52.136;5.420;2023-02-12T05:38:35;104064.91;;;6.33;89.04
72061;BME280;59925;52.136;5.420;2023-02-12T05:41:15;104071.09;;;6.34;88.81
72061;BME280;59925;52.136;5.420;2023-02-12T05:43:43;104066.41;;;6.36;88.79
72061;BME280;59925;52.136;5.420;2023-02-12T05:46:13;104065.59;;;6.35;88.85
72061;BME280;59925;52.136;5.420;2023-02-12T05:48:39;104067.28;;;6.36;88.91
72061;BME280;59925;52.136;5.420;2023-02-12T05:51:20;104072.59;;;6.36;88.62
72061;BME280;59925;52.136;5.420;2023-02-12T05:53:49;104073.59;;;6.35;88.83
72061;BME280;59925;52.136;5.420;2023-02-12T05:56:19;104063.09;;;6.34;89.01
72061;BME280;59925;52.136;5.420;2023-02-12T05:58:50;104066.91;;;6.31;88.80
72061;BME280;59925;52.136;5.420;2023-02-12T06:01:20;104069.75;;;6.29;89.05
72061;BME280;59925;52.136;5.420;2023-02-12T06:03:46;104066.41;;;6.27;89.10
72061;BME280;59925;52.136;5.420;2023-02-12T06:06:13;104069.25;;;6.26;89.21
72061;BME280;59925;52.136;5.420;2023-02-12T06:08:40;104074.41;;;6.27;89.25
72061;BME280;59925;52.136;5.420;2023-02-12T06:11:10;104069.06;;;6.27;88.72
72061;BME280;59925;52.136;5.420;2023-02-12T06:13:37;104070.72;;;6.28;88.99
72061;BME280;59925;52.136;5.420;2023-02-12T06:16:04;104074.22;;;6.29;89.03
72061;BME280;59925;52.136;5.420;2023-02-12T06:18:34;104072.59;;;6.28;88.87
72061;BME280;59925;52.136;5.420;2023-02-12T06:21:04;104076.25;;;6.27;88.81
72061;BME280;59925;52.136;5.420;2023-02-12T06:23:30;104075.38;;;6.26;88.75
72061;BME280;59925;52.136;5.420;2023-02-12T06:25:57;104079.03;;;6.25;88.94
72061;BME280;59925;52.136;5.420;2023-02-12T06:28:24;104071.03;;;6.25;89.12
72061;BME280;59925;52.136;5.420;2023-02-12T06:30:50;104072.03;;;6.24;88.95
72061;BME280;59925;52.136;5.420;2023-02-12T06:33:18;104078.22;;;6.25;89.27
72061;BME280;59925;52.136;5.420;2023-02-12T06:35:44;104070.06;;;6.26;89.01
72061;BME280;59925;52.136;5.420;2023-02-12T06:38:11;104069.75;;;6.29;88.99
72061;BME280;59925;52.136;5.420;2023-02-12T06:40:37;104073.41;;;6.28;89.08
72061;BME280;59925;52.136;5.420;2023-02-12T06:43:04;104075.25;;;6.28;89.02
72061;BME280;59925;52.136;5.420;2023-02-12T06:45:30;104071.56;;;6.29;88.86
72061;BME280;59925;52.136;5.420;2023-02-12T06:47:57;104076.06;;;6.28;88.87
72061;BME280;59925;52.136;5.420;2023-02-12T06:50:24;104079.56;;;6.29;88.82
72061;BME280;59925;52.136;5.420;2023-02-12T06:52:50;104087.53;;;6.29;88.88
72061;BME280;59925;52.136;5.420;2023-02-12T06:55:17;104081.41;;;6.28;88.66
72061;BME280;59925;52.136;5.420;2023-02-12T06:57:43;104085.22;;;6.26;88.52
72061;BME280;59925;52.136;5.420;2023-02-12T07:00:10;104093.53;;;6.23;88.94
72061;BME280;59925;52.136;5.420;2023-02-12T07:02:37;104091.53;;;6.25;88.78
72061;BME280;59925;52.136;5.420;2023-02-12T07:05:04;104092.22;;;6.27;88.81
72061;BME280;59925;52.136;5.420;2023-02-12T07:07:31;104097.22;;;6.30;88.45
72061;BME280;59925;52.136;5.420;2023-02-12T07:09:57;104099.72;;;6.32;88.52
72061;BME280;59925;52.136;5.420;2023-02-12T07:12:23;104095.53;;;6.29;88.46
72061;BME280;59925;52.136;5.420;2023-02-12T07:14:50;104096.38;;;6.29;88.55
72061;BME280;59925;52.136;5.420;2023-02-12T07:17:16;104101.53;;;6.31;88.15
72061;BME280;59925;52.136;5.420;2023-02-12T07:19:43;104096.06;;;6.33;88.34
72061;BME280;59925;52.136;5.420;2023-02-12T07:22:09;104099.72;;;6.32;88.10
72061;BME280;59925;52.136;5.420;2023-02-12T07:24:35;104100.72;;;6.31;88.28
72061;BME280;59925;52.136;5.420;2023-02-12T07:27:04;104105.56;;;6.35;88.08
72061;BME280;59925;52.136;5.420;2023-02-12T07:29:30;104109.22;;;6.34;88.05
72061;BME280;59925;52.136;5.420;2023-02-12T07:31:56;104117.41;;;6.33;88.17
72061;BME280;59925;52.136;5.420;2023-02-12T07:34:23;104120.75;;;6.35;88.29
72061;BME280;59925;52.136;5.420;2023-02-12T07:36:49;104123.53;;;6.33;88.22
72061;BME280;59925;52.136;5.420;2023-02-12T07:39:16;104124.53;;;6.32;87.99
72061;BME280;59925;52.136;5.420;2023-02-12T07:41:42;104125.03;;;6.36;88.00
72061;BME280;59925;52.136;5.420;2023-02-12T07:44:10;104130.22;;;6.37;88.01
72061;BME280;59925;52.136;5.420;2023-02-12T07:46:47;104124.59;;;6.40;87.81
72061;BME280;59925;52.136;5.420;2023-02-12T07:49:19;104126.91;;;6.43;87.94
72061;BME280;59925;52.136;5.420;2023-02-12T07:51:47;104133.09;;;6.44;87.93
72061;BME280;59925;52.136;5.420;2023-02-12T07:54:14;104129.44;;;6.45;87.93
72061;BME280;59925;52.136;5.420;2023-02-12T07:56:42;104132.63;;;6.49;87.88
72061;BME280;59925;52.136;5.420;2023-02-12T07:59:14;104130.63;;;6.51;87.89
72061;BME280;59925;52.136;5.420;2023-02-12T08:01:45;104138.31;;;6.54;87.70
72061;BME280;59925;52.136;5.420;2023-02-12T08:04:14;104132.63;;;6.57;87.44
72061;BME280;59925;52.136;5.420;2023-02-12T08:06:43;104134.47;;;6.56;87.54
72061;BME280;59925;52.136;5.420;2023-02-12T08:09:13;104140.63;;;6.57;87.58
72061;BME280;59925;52.136;5.420;2023-02-12T08:11:41;104153.81;;;6.58;87.68
72061;BME280;59925;52.136;5.420;2023-02-12T08:14:14;104136.81;;;6.59;87.59
72061;BME280;59925;52.136;5.420;2023-02-12T08:16:42;104145.50;;;6.62;87.37
72061;BME280;59925;52.136;5.420;2023-02-12T08:19:10;104153.50;;;6.62;87.54
72061;BME280;59925;52.136;5.420;2023-02-12T08:21:50;104156.31;;;6.60;87.46
72061;BME280;59925;52.136;5.420;2023-02-12T08:24:17;104151.84;;;6.61;87.41
72061;BME280;59925;52.136;5.420;2023-02-12T08:26:43;104158.84;;;6.62;87.37
72061;BME280;59925;52.136;5.420;2023-02-12T08:29:13;104156.16;;;6.62;87.51
72061;BME280;59925;52.136;5.420;2023-02-12T08:31:42;104171.69;;;6.66;87.26
72061;BME280;59925;52.136;5.420;2023-02-12T08:34:24;104162.69;;;6.67;87.34
72061;BME280;59925;52.136;5.420;2023-02-12T08:36:52;104165.84;;;6.71;87.23
72061;BME280;59925;52.136;5.420;2023-02-12T08:39:23;104164.50;;;6.75;87.24
72061;BME280;59925;52.136;5.420;2023-02-12T08:41:53;104170.22;;;6.80;87.16
72061;BME280;59925;52.136;5.420;2023-02-12T08:44:20;104174.56;;;6.81;86.98
72061;BME280;59925;52.136;5.420;2023-02-12T08:46:49;104181.88;;;6.79;86.73
72061;BME280;59925;52.136;5.420;2023-02-12T08:49:21;104183.88;;;6.77;86.62
72061;BME280;59925;52.136;5.420;2023-02-12T08:51:50;104187.22;;;6.79;86.68
72061;BME280;59925;52.136;5.420;2023-02-12T08:54:22;104177.91;;;6.83;86.62
72061;BME280;59925;52.136;5.420;2023-02-12T08:56:49;104182.06;;;6.86;86.39
72061;BME280;59925;52.136;5.420;2023-02-12T08:59:16;104186.22;;;6.88;86.39
72061;BME280;59925;52.136;5.420;2023-02-12T09:01:43;104186.91;;;6.90;86.35
72061;BME280;59925;52.136;5.420;2023-02-12T09:04:30;104183.25;;;6.92;86.38
72061;BME280;59925;52.136;5.420;2023-02-12T09:06:57;104178.75;;;6.92;86.57
72061;BME280;59925;52.136;5.420;2023-02-12T09:09:23;104183.09;;;6.93;86.27
72061;BME280;59925;52.136;5.420;2023-02-12T09:11:50;104189.25;;;6.94;86.13
72061;BME280;59925;52.136;5.420;2023-02-12T09:14:18;104189.75;;;6.97;85.83
72061;BME280;59925;52.136;5.420;2023-02-12T09:16:49;104182.44;;;6.99;85.88
72061;BME280;59925;52.136;5.420;2023-02-12T09:19:17;104184.09;;;7.00;85.80
72061;BME280;59925;52.136;5.420;2023-02-12T09:21:44;104187.47;;;7.02;85.66
72061;BME280;59925;52.136;5.420;2023-02-12T09:24:10;104192.63;;;7.04;85.68
72061;BME280;59925;52.136;5.420;2023-02-12T09:26:38;104189.94;;;7.04;85.65
72061;BME280;59925;52.136;5.420;2023-02-12T09:29:04;104193.28;;;7.06;85.55
72061;BME280;59925;52.136;5.420;2023-02-12T09:31:32;104193.66;;;7.11;85.41
72061;BME280;59925;52.136;5.420;2023-02-12T09:34:04;104198.00;;;7.12;85.42
72061;BME280;59925;52.136;5.420;2023-02-12T09:36:32;104195.31;;;7.12;85.26
72061;BME280;59925;52.136;5.420;2023-02-12T09:38:58;104189.00;;;7.13;85.47
72061;BME280;59925;52.136;5.420;2023-02-12T09:46:59;104187.81;;;7.16;85.38
72061;BME280;59925;52.136;5.420;2023-02-12T09:51:58;104194.84;;;7.25;85.46
72061;BME280;59925;52.136;5.420;2023-02-12T09:54:34;104187.69;;;7.26;85.19
72061;BME280;59925;52.136;5.420;2023-02-12T09:57:06;104183.16;;;7.34;85.12
72061;BME280;59925;52.136;5.420;2023-02-12T09:59:42;104195.03;;;7.40;85.12
72061;BME280;59925;52.136;5.420;2023-02-12T10:02:14;104192.88;;;7.44;85.20
72061;BME280;59925;52.136;5.420;2023-02-12T10:04:43;104191.03;;;7.44;84.83
72061;BME280;59925;52.136;5.420;2023-02-12T10:07:54;104186.84;;;7.42;84.84
72061;BME280;59925;52.136;5.420;2023-02-12T10:10:42;104183.19;;;7.43;84.57
72061;BME280;59925;52.136;5.420;2023-02-12T10:13:30;104182.00;;;7.45;84.60
72061;BME280;59925;52.136;5.420;2023-02-12T10:24:38;104192.19;;;7.50;83.87
72061;BME280;59925;52.136;5.420;2023-02-12T10:27:15;104185.53;;;7.54;83.62
72061;BME280;59925;52.136;5.420;2023-02-12T10:29:44;104193.03;;;7.59;83.82
72061;BME280;59925;52.136;5.420;2023-02-12T10:32:31;104188.38;;;7.61;83.55
72061;BME280;59925;52.136;5.420;2023-02-12T10:34:59;104189.88;;;7.63;83.81
72061;BME280;59925;52.136;5.420;2023-02-12T10:40:15;104189.34;;;7.68;83.64
72061;BME280;59925;52.136;5.420;2023-02-12T10:42:44;104193.69;;;7.69;83.69
72061;BME280;59925;52.136;5.420;2023-02-12T10:45:16;104192.38;;;7.73;83.59
72061;BME280;59925;52.136;5.420;2023-02-12T10:47:45;104186.69;;;7.76;83.47
72061;BME280;59925;52.136;5.420;2023-02-12T10:50:36;104189.53;;;7.75;83.12
72061;BME280;59925;52.136;5.420;2023-02-12T10:53:12;104195.38;;;7.78;83.02
72061;BME280;59925;52.136;5.420;2023-02-12T10:55:42;104196.06;;;7.80;83.19
72061;BME280;59925;52.136;5.420;2023-02-12T10:58:21;104192.53;;;7.88;83.05
72061;BME280;59925;52.136;5.420;2023-02-12T11:00:56;104187.16;;;7.88;82.87
72061;BME280;59925;52.136;5.420;2023-02-12T11:03:28;104193.38;;;7.89;82.60
72061;BME280;59925;52.136;5.420;2023-02-12T11:05:54;104188.03;;;7.89;82.43
72061;BME280;59925;52.136;5.420;2023-02-12T11:08:35;104190.88;;;7.87;82.02
72061;BME280;59925;52.136;5.420;2023-02-12T11:11:13;104194.03;;;7.91;81.88
72061;BME280;59925;52.136;5.420;2023-02-12T11:13:52;104184.66;;;7.95;82.20
72061;BME280;59925;52.136;5.420;2023-02-12T11:16:31;104183.66;;;7.96;81.87
72061;BME280;59925;52.136;5.420;2023-02-12T11:19:06;104189.16;;;8.03;81.92
72061;BME280;59925;52.136;5.420;2023-02-12T11:21:33;104186.16;;;8.06;81.70
72061;BME280;59925;52.136;5.420;2023-02-12T11:24:30;104184.50;;;8.05;81.29
72061;BME280;59925;52.136;5.420;2023-02-12T11:29:39;104175.31;;;7.99;81.07
72061;BME280;59925;52.136;5.420;2023-02-12T11:32:07;104180.66;;;7.99;81.16
72061;BME280;59925;52.136;5.420;2023-02-12T11:34:34;104181.81;;;8.05;81.18
72061;BME280;59925;52.136;5.420;2023-02-12T11:37:01;104177.63;;;8.10;81.02
72061;BME280;59925;52.136;5.420;2023-02-12T11:39:31;104173.28;;;8.18;81.25
72061;BME280;59925;52.136;5.420;2023-02-12T11:42:01;104179.94;;;8.22;80.92
72061;BME280;59925;52.136;5.420;2023-02-12T11:44:36;104173.44;;;8.16;80.69
72061;BME280;59925;52.136;5.420;2023-02-12T11:47:07;104168.94;;;8.17;80.58
72061;BME280;59925;52.136;5.420;2023-02-12T11:49:42;104164.59;;;8.16;80.00
72061;BME280;59925;52.136;5.420;2023-02-12T11:52:20;104166.28;;;8.17;79.88
72061;BME280;59925;52.136;5.420;2023-02-12T11:54:48;104171.44;;;8.18;79.46
72061;BME280;59925;52.136;5.420;2023-02-12T11:57:48;104176.63;;;8.20;79.34
72061;BME280;59925;52.136;5.420;2023-02-12T12:00:27;104170.25;;;8.21;79.51
72061;BME280;59925;52.136;5.420;2023-02-12T12:05:41;104165.91;;;8.28;79.36
72061;BME280;59925;52.136;5.420;2023-02-12T12:08:26;104163.88;;;8.30;79.42
72061;BME280;59925;52.136;5.420;2023-02-12T12:10:57;104153.88;;;8.32;79.00
72061;BME280;59925;52.136;5.420;2023-02-12T12:13:32;104156.34;;;8.34;78.57
72061;BME280;59925;52.136;5.420;2023-02-12T12:16:26;104153.34;;;8.37;78.46
72061;BME280;59925;52.136;5.420;2023-02-12T12:19:22;104145.47;;;8.35;78.45
72061;BME280;59925;52.136;5.420;2023-02-12T12:23:10;104153.81;;;8.40;78.52
72061;BME280;59925;52.136;5.420;2023-02-12T12:25:56;104152.13;;;8.48;78.26
72061;BME280;59925;52.136;5.420;2023-02-12T12:28:43;104139.78;;;8.47;77.46
72061;BME280;59925;52.136;5.420;2023-02-12T12:31:21;104142.31;;;8.40;77.05
72061;BME280;59925;52.136;5.420;2023-02-12T12:34:12;104133.75;;;8.44;77.46
72061;BME280;59925;52.136;5.420;2023-02-12T12:44:53;104131.59;;;8.48;77.14
72061;BME280;59925;52.136;5.420;2023-02-12T12:50:17;104126.25;;;8.48;77.05
72061;BME280;59925;52.136;5.420;2023-02-12T13:09:56;104116.00;;;8.60;76.62
72061;BME280;59925;52.136;5.420;2023-02-12T13:15:30;104110.66;;;8.60;76.46
72061;BME280;59925;52.136;5.420;2023-02-12T13:21:03;104112.44;;;8.68;75.95
72061;BME280;59925;52.136;5.420;2023-02-12T13:23:42;104112.00;;;8.56;75.24
72061;BME280;59925;52.136;5.420;2023-02-12T13:29:04;104106.31;;;8.59;75.62
72061;BME280;59925;52.136;5.420;2023-02-12T13:31:37;104098.94;;;8.61;75.42
72061;BME280;59925;52.136;5.420;2023-02-12T13:34:12;104097.56;;;8.65;75.75
72061;BME280;59925;52.136;5.420;2023-02-12T13:36:40;104103.41;;;8.69;75.67
72061;BME280;59925;52.136;5.420;2023-02-12T13:39:21;104096.25;;;8.61;75.62
72061;BME280;59925;52.136;5.420;2023-02-12T13:51:02;104085.75;;;8.59;75.51
72061;BME280;59925;52.136;5.420;2023-02-12T14:02:00;104079.28;;;8.46;75.20
72061;BME280;59925;52.136;5.420;2023-02-12T14:04:43;104088.97;;;8.47;75.58
72061;BME280;59925;52.136;5.420;2023-02-12T14:07:14;104092.00;;;8.43;74.94
72061;BME280;59925;52.136;5.420;2023-02-12T14:10:07;104087.66;;;8.42;74.66
72061;BME280;59925;52.136;5.420;2023-02-12T14:12:37;104079.63;;;8.42;74.85
72061;BME280;59925;52.136;5.420;2023-02-12T14:15:21;104072.94;;;8.47;75.17
72061;BME280;59925;52.136;5.420;2023-02-12T14:20:40;104071.47;;;8.36;74.76
72061;BME280;59925;52.136;5.420;2023-02-12T14:23:25;104070.16;;;8.32;74.36
72061;BME280;59925;52.136;5.420;2023-02-12T14:25:56;104079.03;;;8.24;74.64
72061;BME280;59925;52.136;5.420;2023-02-12T14:28:33;104067.34;;;8.25;74.90
72061;BME280;59925;52.136;5.420;2023-02-12T14:34:36;104063.00;;;8.24;74.33
72061;BME280;59925;52.136;5.420;2023-02-12T14:36:43;104062.19;;;8.23;74.55
72061;BME280;59925;52.136;5.420;2023-02-12T14:41:47;104071.19;;;8.22;74.16
72061;BME280;59925;52.136;5.420;2023-02-12T14:52:11;104062.84;;;8.25;74.64
72061;BME280;59925;52.136;5.420;2023-02-12T14:55:27;104067.19;;;8.26;74.48
72061;BME280;59925;52.136;5.420;2023-02-12T14:57:58;104054.44;;;8.28;74.31
72061;BME280;59925;52.136;5.420;2023-02-12T15:00:38;104069.66;;;8.28;74.44
72061;BME280;59925;52.136;5.420;2023-02-12T15:06:01;104064.84;;;8.23;74.05
72061;BME280;59925;52.136;5.420;2023-02-12T15:08:42;104070.19;;;8.23;74.10
72061;BME280;59925;52.136;5.420;2023-02-12T15:11:27;104065.66;;;8.24;74.15
72061;BME280;59925;52.136;5.420;2023-02-12T15:14:03;104066.84;;;8.21;74.65
72061;BME280;59925;52.136;5.420;2023-02-12T15:16:40;104066.38;;;8.18;74.17
72061;BME280;59925;52.136;5.420;2023-02-12T15:19:17;104064.03;;;8.15;74.05
72061;BME280;59925;52.136;5.420;2023-02-12T15:21:46;104064.38;;;8.11;74.38
72061;BME280;59925;52.136;5.420;2023-02-12T15:24:20;104058.88;;;8.13;74.25
72061;BME280;59925;52.136;5.420;2023-02-12T15:26:58;104063.91;;;8.08;73.98
72061;BME280;59925;52.136;5.420;2023-02-12T15:29:28;104060.22;;;8.09;74.31
72061;BME280;59925;52.136;5.420;2023-02-12T15:31:58;104060.75;;;8.04;73.86
72061;BME280;59925;52.136;5.420;2023-02-12T15:34:31;104059.75;;;8.05;74.25
72061;BME280;59925;52.136;5.420;2023-02-12T15:37:02;104059.91;;;8.04;74.08
72061;BME280;59925;52.136;5.420;2023-02-12T15:39:43;104058.06;;;8.04;74.20
72061;BME280;59925;52.136;5.420;2023-02-12T15:42:50;104059.56;;;8.07;74.57
72061;BME280;59925;52.136;5.420;2023-02-12T15:45:22;104056.41;;;8.03;74.56